sensor_id;sensor_type;location;lat;lon;timestamp;P1;durP1;ratioP1;P2;durP2;ratioP2
39344;SDS011;25061;51.954;6.996;2023-05-10T04:30:48;48.92;;;18.52;;
39344;SDS011;25061;51.954;6.996;2023-05-10T04:33:13;47.67;;;19.00;;
39344;SDS011;25061;51.954;6.996;2023-05-10T04:35:39;51.78;;;19.17;;
39344;SDS011;25061;51.954;6.996;2023-05-10T04:38:05;46.00;;;17.95;;
39344;SDS011;25061;51.954;6.996;2023-05-10T04:40:30;46.67;;;18.10;;
39344;SDS011;25061;51.954;6.996;2023-05-10T04:42:56;45.78;;;18.52;;
39344;SDS011;25061;51.954;6.996;2023-05-10T04:45:21;46.15;;;18.90;;
39344;SDS011;25061;51.954;6.996;2023-05-10T04:47:47;40.45;;;17.42;;
39344;SDS011;25061;51.954;6.996;2023-05-10T04:50:13;45.67;;;20.02;;
39344;SDS011;25061;51.954;6.996;2023-05-10T04:52:38;46.30;;;19.85;;
39344;SDS011;25061;51.954;6.996;2023-05-10T04:55:04;53.30;;;22.83;;
39344;SDS011;25061;51.954;6.996;2023-05-10T04:57:32;53.47;;;21.60;;
39344;SDS011;25061;51.954;6.996;2023-05-10T04:59:57;57.00;;;23.25;;
39344;SDS011;25061;51.954;6.996;2023-05-10T05:02:24;52.08;;;21.70;;
39344;SDS011;25061;51.954;6.996;2023-05-10T05:04:50;48.63;;;21.48;;
39344;SDS011;25061;51.954;6.996;2023-05-10T05:07:15;51.97;;;22.08;;
39344;SDS011;25061;51.954;6.996;2023-05-10T05:09:41;54.60;;;22.58;;
39344;SDS011;25061;51.954;6.996;2023-05-10T05:12:07;52.53;;;22.52;;
39344;SDS011;25061;51.954;6.996;2023-05-10T05:14:32;56.63;;;23.23;;
39344;SDS011;25061;51.954;6.996;2023-05-10T05:16:58;53.58;;;22.58;;
39344;SDS011;25061;51.954;6.996;2023-05-10T05:19:23;55.13;;;24.13;;
39344;SDS011;25061;51.954;6.996;2023-05-10T05:21:49;56.35;;;24.85;;
39344;SDS011;25061;51.954;6.996;2023-05-10T05:24:15;53.00;;;25.08;;
39344;SDS011;25061;51.954;6.996;2023-05-10T05:26:40;55.47;;;25.10;;
39344;SDS011;25061;51.954;6.996;2023-05-10T05:29:06;57.75;;;25.45;;
39344;SDS011;25061;51.954;6.996;2023-05-10T05:31:32;54.10;;;24.58;;
39344;SDS011;25061;51.954;6.996;2023-05-10T05:33:57;51.33;;;23.25;;
39344;SDS011;25061;51.954;6.996;2023-05-10T05:36:24;50.95;;;22.17;;
39344;SDS011;25061;51.954;6.996;2023-05-10T05:38:50;49.28;;;23.23;;
39344;SDS011;25061;51.954;6.996;2023-05-10T05:41:15;49.92;;;23.65;;
39344;SDS011;25061;51.954;6.996;2023-05-10T05:43:41;51.75;;;22.35;;
39344;SDS011;25061;51.954;6.996;2023-05-10T05:46:07;51.50;;;23.33;;
39344;SDS011;25061;51.954;6.996;2023-05-10T05:48:32;47.20;;;22.50;;
39344;SDS011;25061;51.954;6.996;2023-05-10T05:50:58;51.53;;;23.90;;
39344;SDS011;25061;51.954;6.996;2023-05-10T05:53:24;49.13;;;24.17;;
39344;SDS011;25061;51.954;6.996;2023-05-10T05:55:53;49.33;;;23.88;;
39344;SDS011;25061;51.954;6.996;2023-05-10T05:58:20;48.40;;;24.35;;
39344;SDS011;25061;51.954;6.996;2023-05-10T06:00:46;49.90;;;24.40;;
39344;SDS011;25061;51.954;6.996;2023-05-10T06:03:12;51.17;;;23.63;;
39344;SDS011;25061;51.954;6.996;2023-05-10T06:05:37;49.33;;;23.73;;
39344;SDS011;25061;51.954;6.996;2023-05-10T06:08:03;54.75;;;23.98;;
39344;SDS011;25061;51.954;6.996;2023-05-10T06:10:29;53.47;;;25.30;;
39344;SDS011;25061;51.954;6.996;2023-05-10T06:12:55;46.95;;;23.55;;
39344;SDS011;25061;51.954;6.996;2023-05-10T06:15:21;47.42;;;24.27;;
39344;SDS011;25061;51.954;6.996;2023-05-10T06:17:46;44.95;;;22.38;;
39344;SDS011;25061;51.954;6.996;2023-05-10T06:20:14;51.35;;;22.65;;
39344;SDS011;25061;51.954;6.996;2023-05-10T06:22:40;47.92;;;23.85;;
39344;SDS011;25061;51.954;6.996;2023-05-10T06:25:06;48.90;;;23.63;;
39344;SDS011;25061;51.954;6.996;2023-05-10T06:27:32;52.25;;;23.58;;
39344;SDS011;25061;51.954;6.996;2023-05-10T06:29:58;50.85;;;23.15;;
39344;SDS011;25061;51.954;6.996;2023-05-10T06:32:23;48.65;;;23.50;;
39344;SDS011;25061;51.954;6.996;2023-05-10T06:34:49;51.22;;;24.40;;
39344;SDS011;25061;51.954;6.996;2023-05-10T06:37:14;54.22;;;26.10;;
39344;SDS011;25061;51.954;6.996;2023-05-10T06:39:40;55.20;;;24.50;;
39344;SDS011;25061;51.954;6.996;2023-05-10T06:42:05;50.45;;;24.35;;
39344;SDS011;25061;51.954;6.996;2023-05-10T06:44:31;49.28;;;24.17;;
39344;SDS011;25061;51.954;6.996;2023-05-10T06:46:57;48.88;;;24.33;;
39344;SDS011;25061;51.954;6.996;2023-05-10T06:49:23;46.35;;;22.13;;
39344;SDS011;25061;51.954;6.996;2023-05-10T06:51:48;48.05;;;23.92;;
39344;SDS011;25061;51.954;6.996;2023-05-10T06:54:14;49.38;;;23.98;;
39344;SDS011;25061;51.954;6.996;2023-05-10T06:56:40;47.85;;;22.65;;
39344;SDS011;25061;51.954;6.996;2023-05-10T06:59:05;55.03;;;24.40;;
39344;SDS011;25061;51.954;6.996;2023-05-10T07:01:31;48.17;;;23.42;;
39344;SDS011;25061;51.954;6.996;2023-05-10T07:03:57;45.63;;;23.20;;
39344;SDS011;25061;51.954;6.996;2023-05-10T07:06:22;49.75;;;23.27;;
39344;SDS011;25061;51.954;6.996;2023-05-10T07:08:48;48.90;;;24.17;;
39344;SDS011;25061;51.954;6.996;2023-05-10T07:11:13;49.30;;;23.25;;
39344;SDS011;25061;51.954;6.996;2023-05-10T07:13:39;52.75;;;24.23;;
39344;SDS011;25061;51.954;6.996;2023-05-10T07:16:08;46.95;;;21.77;;
39344;SDS011;25061;51.954;6.996;2023-05-10T07:18:35;44.95;;;22.17;;
39344;SDS011;25061;51.954;6.996;2023-05-10T07:21:01;44.67;;;23.50;;
39344;SDS011;25061;51.954;6.996;2023-05-10T07:23:27;43.03;;;22.25;;
39344;SDS011;25061;51.954;6.996;2023-05-10T07:25:53;44.15;;;22.73;;
39344;SDS011;25061;51.954;6.996;2023-05-10T07:28:19;43.30;;;22.02;;
39344;SDS011;25061;51.954;6.996;2023-05-10T07:30:44;41.80;;;21.75;;
39344;SDS011;25061;51.954;6.996;2023-05-10T07:33:12;48.10;;;22.60;;
39344;SDS011;25061;51.954;6.996;2023-05-10T07:35:38;44.42;;;21.42;;
39344;SDS011;25061;51.954;6.996;2023-05-10T07:38:04;39.88;;;20.88;;
39344;SDS011;25061;51.954;6.996;2023-05-10T07:40:30;44.83;;;21.70;;
39344;SDS011;25061;51.954;6.996;2023-05-10T07:42:56;42.78;;;21.23;;
39344;SDS011;25061;51.954;6.996;2023-05-10T07:45:22;40.78;;;19.33;;
39344;SDS011;25061;51.954;6.996;2023-05-10T07:47:48;34.00;;;19.20;;
39344;SDS011;25061;51.954;6.996;2023-05-10T07:50:14;39.00;;;19.25;;
39344;SDS011;25061;51.954;6.996;2023-05-10T07:52:40;38.22;;;19.75;;
39344;SDS011;25061;51.954;6.996;2023-05-10T07:55:06;35.03;;;19.58;;
39344;SDS011;25061;51.954;6.996;2023-05-10T07:57:33;36.80;;;20.10;;
39344;SDS011;25061;51.954;6.996;2023-05-10T08:00:00;38.65;;;19.77;;
39344;SDS011;25061;51.954;6.996;2023-05-10T08:02:27;39.28;;;19.77;;
39344;SDS011;25061;51.954;6.996;2023-05-10T08:04:52;38.47;;;20.55;;
39344;SDS011;25061;51.954;6.996;2023-05-10T08:07:18;36.47;;;19.00;;
39344;SDS011;25061;51.954;6.996;2023-05-10T08:09:44;36.78;;;19.90;;
39344;SDS011;25061;51.954;6.996;2023-05-10T08:12:09;38.30;;;19.27;;
39344;SDS011;25061;51.954;6.996;2023-05-10T08:14:35;37.90;;;20.33;;
39344;SDS011;25061;51.954;6.996;2023-05-10T08:17:02;37.38;;;20.40;;
39344;SDS011;25061;51.954;6.996;2023-05-10T08:19:28;36.33;;;19.40;;
39344;SDS011;25061;51.954;6.996;2023-05-10T08:21:57;38.40;;;21.02;;
39344;SDS011;25061;51.954;6.996;2023-05-10T08:24:22;34.25;;;19.10;;
39344;SDS011;25061;51.954;6.996;2023-05-10T08:26:48;34.88;;;18.48;;
39344;SDS011;25061;51.954;6.996;2023-05-10T08:29:14;37.08;;;19.55;;
39344;SDS011;25061;51.954;6.996;2023-05-10T08:31:40;30.95;;;17.58;;
39344;SDS011;25061;51.954;6.996;2023-05-10T08:34:06;34.03;;;17.73;;
39344;SDS011;25061;51.954;6.996;2023-05-10T08:36:31;32.50;;;18.05;;
39344;SDS011;25061;51.954;6.996;2023-05-10T08:38:58;32.70;;;18.33;;
39344;SDS011;25061;51.954;6.996;2023-05-10T08:41:25;31.38;;;18.08;;
39344;SDS011;25061;51.954;6.996;2023-05-10T08:43:51;32.08;;;18.08;;
39344;SDS011;25061;51.954;6.996;2023-05-10T08:46:19;31.52;;;17.42;;
39344;SDS011;25061;51.954;6.996;2023-05-10T08:48:48;32.40;;;18.00;;
39344;SDS011;25061;51.954;6.996;2023-05-10T08:51:18;34.53;;;17.98;;
39344;SDS011;25061;51.954;6.996;2023-05-10T08:53:46;32.13;;;18.42;;
39344;SDS011;25061;51.954;6.996;2023-05-10T08:56:12;31.38;;;17.98;;
39344;SDS011;25061;51.954;6.996;2023-05-10T08:58:38;30.58;;;17.35;;
39344;SDS011;25061;51.954;6.996;2023-05-10T09:01:04;29.45;;;17.00;;
39344;SDS011;25061;51.954;6.996;2023-05-10T09:03:30;30.17;;;16.55;;
39344;SDS011;25061;51.954;6.996;2023-05-10T09:05:56;31.52;;;17.05;;
39344;SDS011;25061;51.954;6.996;2023-05-10T09:08:23;32.20;;;17.48;;
39344;SDS011;25061;51.954;6.996;2023-05-10T09:10:53;33.53;;;17.67;;
39344;SDS011;25061;51.954;6.996;2023-05-10T09:13:20;31.30;;;17.20;;
39344;SDS011;25061;51.954;6.996;2023-05-10T09:15:47;29.10;;;17.15;;
39344;SDS011;25061;51.954;6.996;2023-05-10T09:18:13;30.70;;;17.88;;
39344;SDS011;25061;51.954;6.996;2023-05-10T09:20:39;28.27;;;16.58;;
39344;SDS011;25061;51.954;6.996;2023-05-10T09:23:05;28.92;;;17.15;;
39344;SDS011;25061;51.954;6.996;2023-05-10T09:25:31;28.38;;;17.40;;
39344;SDS011;25061;51.954;6.996;2023-05-10T09:27:58;31.90;;;16.63;;
39344;SDS011;25061;51.954;6.996;2023-05-10T09:30:28;29.05;;;16.63;;
39344;SDS011;25061;51.954;6.996;2023-05-10T09:32:56;31.13;;;18.50;;
39344;SDS011;25061;51.954;6.996;2023-05-10T09:35:24;32.17;;;18.27;;
39344;SDS011;25061;51.954;6.996;2023-05-10T09:37:51;31.48;;;17.88;;
39344;SDS011;25061;51.954;6.996;2023-05-10T09:40:26;31.70;;;17.40;;
39344;SDS011;25061;51.954;6.996;2023-05-10T09:43:00;28.55;;;16.27;;
39344;SDS011;25061;51.954;6.996;2023-05-10T09:45:31;27.27;;;16.23;;
39344;SDS011;25061;51.954;6.996;2023-05-10T09:47:58;31.23;;;16.13;;
39344;SDS011;25061;51.954;6.996;2023-05-10T09:50:26;24.60;;;15.38;;
39344;SDS011;25061;51.954;6.996;2023-05-10T09:55:24;25.77;;;14.93;;
39344;SDS011;25061;51.954;6.996;2023-05-10T09:58:05;23.98;;;13.60;;
39344;SDS011;25061;51.954;6.996;2023-05-10T10:00:36;27.15;;;14.88;;
39344;SDS011;25061;51.954;6.996;2023-05-10T10:03:03;30.33;;;14.95;;
39344;SDS011;25061;51.954;6.996;2023-05-10T10:05:32;25.55;;;14.70;;
39344;SDS011;25061;51.954;6.996;2023-05-10T10:08:00;26.80;;;15.10;;
39344;SDS011;25061;51.954;6.996;2023-05-10T10:10:30;25.60;;;15.13;;
39344;SDS011;25061;51.954;6.996;2023-05-10T10:12:57;28.08;;;16.27;;
39344;SDS011;25061;51.954;6.996;2023-05-10T10:15:24;28.75;;;15.20;;
39344;SDS011;25061;51.954;6.996;2023-05-10T10:17:51;26.05;;;13.60;;
39344;SDS011;25061;51.954;6.996;2023-05-10T10:20:18;25.33;;;13.60;;
39344;SDS011;25061;51.954;6.996;2023-05-10T10:22:44;22.88;;;12.60;;
39344;SDS011;25061;51.954;6.996;2023-05-10T10:25:12;20.95;;;12.60;;
39344;SDS011;25061;51.954;6.996;2023-05-10T10:35:43;19.67;;;11.70;;
39344;SDS011;25061;51.954;6.996;2023-05-10T10:38:14;21.60;;;11.63;;
39344;SDS011;25061;51.954;6.996;2023-05-10T10:40:41;22.08;;;12.60;;
39344;SDS011;25061;51.954;6.996;2023-05-10T10:43:26;21.35;;;10.63;;
39344;SDS011;25061;51.954;6.996;2023-05-10T10:48:39;19.83;;;10.95;;
39344;SDS011;25061;51.954;6.996;2023-05-10T10:51:06;19.88;;;11.90;;
39344;SDS011;25061;51.954;6.996;2023-05-10T10:53:32;20.60;;;12.32;;
39344;SDS011;25061;51.954;6.996;2023-05-10T10:56:04;21.42;;;12.38;;
39344;SDS011;25061;51.954;6.996;2023-05-10T10:58:34;22.02;;;12.90;;
39344;SDS011;25061;51.954;6.996;2023-05-10T11:01:16;19.20;;;11.98;;
39344;SDS011;25061;51.954;6.996;2023-05-10T11:08:59;23.65;;;11.75;;
39344;SDS011;25061;51.954;6.996;2023-05-10T11:11:32;22.60;;;13.15;;
39344;SDS011;25061;51.954;6.996;2023-05-10T11:14:03;19.92;;;12.55;;
39344;SDS011;25061;51.954;6.996;2023-05-10T11:16:40;22.33;;;13.00;;
39344;SDS011;25061;51.954;6.996;2023-05-10T11:19:08;22.60;;;13.13;;
39344;SDS011;25061;51.954;6.996;2023-05-10T11:21:51;21.50;;;13.25;;
39344;SDS011;25061;51.954;6.996;2023-05-10T11:24:40;20.90;;;12.25;;
39344;SDS011;25061;51.954;6.996;2023-05-10T11:27:23;22.38;;;13.63;;
39344;SDS011;25061;51.954;6.996;2023-05-10T11:29:52;23.15;;;14.45;;
39344;SDS011;25061;51.954;6.996;2023-05-10T11:32:19;22.33;;;13.48;;
39344;SDS011;25061;51.954;6.996;2023-05-10T11:34:46;23.13;;;14.20;;
39344;SDS011;25061;51.954;6.996;2023-05-10T11:37:13;21.50;;;12.70;;
39344;SDS011;25061;51.954;6.996;2023-05-10T11:39:38;23.15;;;12.73;;
39344;SDS011;25061;51.954;6.996;2023-05-10T11:42:11;20.25;;;12.25;;
39344;SDS011;25061;51.954;6.996;2023-05-10T11:44:37;18.98;;;12.32;;
39344;SDS011;25061;51.954;6.996;2023-05-10T11:47:03;18.05;;;12.10;;
39344;SDS011;25061;51.954;6.996;2023-05-10T11:49:30;19.52;;;12.38;;
39344;SDS011;25061;51.954;6.996;2023-05-10T11:52:05;20.05;;;11.70;;
39344;SDS011;25061;51.954;6.996;2023-05-10T11:54:31;18.88;;;11.90;;
39344;SDS011;25061;51.954;6.996;2023-05-10T11:56:59;21.58;;;13.05;;
39344;SDS011;25061;51.954;6.996;2023-05-10T11:59:26;21.83;;;13.90;;
39344;SDS011;25061;51.954;6.996;2023-05-10T12:01:52;23.10;;;14.38;;
39344;SDS011;25061;51.954;6.996;2023-05-10T12:04:18;22.55;;;13.88;;
39344;SDS011;25061;51.954;6.996;2023-05-10T12:06:44;22.40;;;14.65;;
39344;SDS011;25061;51.954;6.996;2023-05-10T12:09:11;23.50;;;14.27;;
39344;SDS011;25061;51.954;6.996;2023-05-10T12:11:40;26.77;;;15.30;;
39344;SDS011;25061;51.954;6.996;2023-05-10T12:14:06;24.38;;;14.68;;
39344;SDS011;25061;51.954;6.996;2023-05-10T12:16:33;27.13;;;15.60;;
39344;SDS011;25061;51.954;6.996;2023-05-10T12:19:00;25.52;;;15.02;;
39344;SDS011;25061;51.954;6.996;2023-05-10T12:21:30;24.42;;;15.07;;
39344;SDS011;25061;51.954;6.996;2023-05-10T12:23:59;23.67;;;13.00;;
39344;SDS011;25061;51.954;6.996;2023-05-10T12:26:27;19.52;;;11.73;;
39344;SDS011;25061;51.954;6.996;2023-05-10T12:28:54;20.25;;;11.85;;
39344;SDS011;25061;51.954;6.996;2023-05-10T12:31:53;20.55;;;12.27;;
39344;SDS011;25061;51.954;6.996;2023-05-10T12:34:24;18.08;;;10.18;;
39344;SDS011;25061;51.954;6.996;2023-05-10T12:36:54;18.48;;;10.35;;
39344;SDS011;25061;51.954;6.996;2023-05-10T12:39:20;19.77;;;10.98;;
39344;SDS011;25061;51.954;6.996;2023-05-10T12:41:46;21.65;;;12.57;;
39344;SDS011;25061;51.954;6.996;2023-05-10T12:44:11;20.50;;;12.10;;
39344;SDS011;25061;51.954;6.996;2023-05-10T12:46:37;21.63;;;12.35;;
39344;SDS011;25061;51.954;6.996;2023-05-10T12:49:02;24.85;;;12.75;;
39344;SDS011;25061;51.954;6.996;2023-05-10T12:51:28;20.30;;;12.25;;
39344;SDS011;25061;51.954;6.996;2023-05-10T12:53:54;22.80;;;13.52;;
39344;SDS011;25061;51.954;6.996;2023-05-10T12:56:20;23.67;;;13.15;;
39344;SDS011;25061;51.954;6.996;2023-05-10T12:58:46;24.75;;;14.35;;
39344;SDS011;25061;51.954;6.996;2023-05-10T13:01:13;26.23;;;15.50;;
39344;SDS011;25061;51.954;6.996;2023-05-10T13:03:39;25.23;;;14.13;;
39344;SDS011;25061;51.954;6.996;2023-05-10T13:06:05;25.38;;;14.57;;
39344;SDS011;25061;51.954;6.996;2023-05-10T13:08:31;21.27;;;12.23;;
39344;SDS011;25061;51.954;6.996;2023-05-10T13:10:59;19.10;;;11.75;;
39344;SDS011;25061;51.954;6.996;2023-05-10T13:13:27;26.40;;;14.45;;
39344;SDS011;25061;51.954;6.996;2023-05-10T13:15:53;21.77;;;13.00;;
39344;SDS011;25061;51.954;6.996;2023-05-10T13:18:19;18.92;;;11.63;;
39344;SDS011;25061;51.954;6.996;2023-05-10T13:20:45;18.35;;;10.88;;
39344;SDS011;25061;51.954;6.996;2023-05-10T13:23:11;13.93;;;8.00;;
39344;SDS011;25061;51.954;6.996;2023-05-10T13:25:36;14.95;;;8.27;;
39344;SDS011;25061;51.954;6.996;2023-05-10T13:28:02;13.95;;;7.85;;
39344;SDS011;25061;51.954;6.996;2023-05-10T13:30:28;14.80;;;7.88;;
39344;SDS011;25061;51.954;6.996;2023-05-10T13:32:54;13.40;;;7.80;;
39344;SDS011;25061;51.954;6.996;2023-05-10T13:35:20;14.60;;;7.40;;
39344;SDS011;25061;51.954;6.996;2023-05-10T13:37:46;16.17;;;7.88;;
39344;SDS011;25061;51.954;6.996;2023-05-10T13:40:11;15.57;;;9.40;;
39344;SDS011;25061;51.954;6.996;2023-05-10T13:42:40;15.05;;;8.63;;
39344;SDS011;25061;51.954;6.996;2023-05-10T13:45:06;15.70;;;9.50;;
39344;SDS011;25061;51.954;6.996;2023-05-10T13:47:32;14.85;;;8.85;;
39344;SDS011;25061;51.954;6.996;2023-05-10T13:50:00;17.00;;;8.77;;
39344;SDS011;25061;51.954;6.996;2023-05-10T13:52:26;15.32;;;9.15;;
39344;SDS011;25061;51.954;6.996;2023-05-10T13:54:51;14.25;;;8.45;;
39344;SDS011;25061;51.954;6.996;2023-05-10T13:57:22;14.10;;;8.77;;
39344;SDS011;25061;51.954;6.996;2023-05-10T13:59:51;15.82;;;9.48;;
39344;SDS011;25061;51.954;6.996;2023-05-10T14:02:17;14.65;;;8.85;;
39344;SDS011;25061;51.954;6.996;2023-05-10T14:04:43;15.15;;;8.88;;
39344;SDS011;25061;51.954;6.996;2023-05-10T14:07:08;15.40;;;9.57;;
39344;SDS011;25061;51.954;6.996;2023-05-10T14:09:35;16.98;;;9.95;;
39344;SDS011;25061;51.954;6.996;2023-05-10T14:12:01;18.70;;;10.02;;
39344;SDS011;25061;51.954;6.996;2023-05-10T14:14:27;18.52;;;9.75;;
39344;SDS011;25061;51.954;6.996;2023-05-10T14:16:54;15.63;;;9.48;;
39344;SDS011;25061;51.954;6.996;2023-05-10T14:19:19;16.85;;;9.98;;
39344;SDS011;25061;51.954;6.996;2023-05-10T14:21:45;16.30;;;9.32;;
39344;SDS011;25061;51.954;6.996;2023-05-10T14:24:10;15.73;;;9.25;;
39344;SDS011;25061;51.954;6.996;2023-05-10T14:26:37;17.98;;;9.48;;
39344;SDS011;25061;51.954;6.996;2023-05-10T14:29:04;14.73;;;8.75;;
39344;SDS011;25061;51.954;6.996;2023-05-10T14:31:29;14.70;;;8.85;;
39344;SDS011;25061;51.954;6.996;2023-05-10T14:33:55;14.65;;;8.63;;
39344;SDS011;25061;51.954;6.996;2023-05-10T14:36:22;13.30;;;8.23;;
39344;SDS011;25061;51.954;6.996;2023-05-10T14:38:48;16.35;;;8.98;;
39344;SDS011;25061;51.954;6.996;2023-05-10T14:41:15;16.95;;;8.95;;
39344;SDS011;25061;51.954;6.996;2023-05-10T14:43:42;16.05;;;9.02;;
39344;SDS011;25061;51.954;6.996;2023-05-10T14:46:08;16.02;;;8.73;;
39344;SDS011;25061;51.954;6.996;2023-05-10T14:48:34;14.20;;;7.85;;
39344;SDS011;25061;51.954;6.996;2023-05-10T14:51:00;16.15;;;7.93;;
39344;SDS011;25061;51.954;6.996;2023-05-10T14:53:25;13.68;;;7.63;;
39344;SDS011;25061;51.954;6.996;2023-05-10T14:55:54;12.73;;;6.90;;
39344;SDS011;25061;51.954;6.996;2023-05-10T14:58:20;13.07;;;6.22;;
39344;SDS011;25061;51.954;6.996;2023-05-10T15:00:48;11.35;;;6.07;;
39344;SDS011;25061;51.954;6.996;2023-05-10T15:03:13;11.52;;;5.18;;
39344;SDS011;25061;51.954;6.996;2023-05-10T15:05:39;11.43;;;5.45;;
39344;SDS011;25061;51.954;6.996;2023-05-10T15:08:05;10.10;;;5.10;;
39344;SDS011;25061;51.954;6.996;2023-05-10T15:10:31;12.75;;;5.97;;
39344;SDS011;25061;51.954;6.996;2023-05-10T15:12:58;10.30;;;5.25;;
39344;SDS011;25061;51.954;6.996;2023-05-10T15:15:24;8.73;;;4.40;;
39344;SDS011;25061;51.954;6.996;2023-05-10T15:17:51;8.98;;;4.28;;
39344;SDS011;25061;51.954;6.996;2023-05-10T15:20:17;8.88;;;4.65;;
39344;SDS011;25061;51.954;6.996;2023-05-10T15:22:42;11.73;;;4.55;;
39344;SDS011;25061;51.954;6.996;2023-05-10T15:25:08;8.98;;;4.22;;
39344;SDS011;25061;51.954;6.996;2023-05-10T15:27:34;8.55;;;4.28;;
39344;SDS011;25061;51.954;6.996;2023-05-10T15:30:00;8.63;;;4.45;;
39344;SDS011;25061;51.954;6.996;2023-05-10T15:32:26;10.40;;;4.10;;
39344;SDS011;25061;51.954;6.996;2023-05-10T15:34:52;8.80;;;4.18;;
39344;SDS011;25061;51.954;6.996;2023-05-10T15:37:17;10.38;;;5.38;;
39344;SDS011;25061;51.954;6.996;2023-05-10T15:39:43;8.32;;;4.25;;
39344;SDS011;25061;51.954;6.996;2023-05-10T15:42:09;11.55;;;5.50;;
39344;SDS011;25061;51.954;6.996;2023-05-10T15:44:36;8.68;;;4.30;;
39344;SDS011;25061;51.954;6.996;2023-05-10T15:47:04;9.93;;;4.45;;
39344;SDS011;25061;51.954;6.996;2023-05-10T15:49:31;7.72;;;3.70;;
39344;SDS011;25061;51.954;6.996;2023-05-10T15:51:57;9.05;;;3.95;;
39344;SDS011;25061;51.954;6.996;2023-05-10T15:54:24;9.32;;;4.10;;
39344;SDS011;25061;51.954;6.996;2023-05-10T15:56:51;9.27;;;3.95;;
39344;SDS011;25061;51.954;6.996;2023-05-10T15:59:18;10.57;;;4.28;;
39344;SDS011;25061;51.954;6.996;2023-05-10T16:01:45;9.52;;;4.38;;
39344;SDS011;25061;51.954;6.996;2023-05-10T16:04:12;10.43;;;4.32;;
39344;SDS011;25061;51.954;6.996;2023-05-10T16:06:38;9.35;;;4.20;;
39344;SDS011;25061;51.954;6.996;2023-05-10T16:09:05;9.77;;;4.65;;
39344;SDS011;25061;51.954;6.996;2023-05-10T16:11:31;9.25;;;4.13;;
39344;SDS011;25061;51.954;6.996;2023-05-10T16:14:01;8.82;;;3.80;;
39344;SDS011;25061;51.954;6.996;2023-05-10T16:16:27;10.57;;;4.53;;
39344;SDS011;25061;51.954;6.996;2023-05-10T16:18:58;9.40;;;4.03;;
39344;SDS011;25061;51.954;6.996;2023-05-10T16:21:30;9.38;;;4.28;;
39344;SDS011;25061;51.954;6.996;2023-05-10T16:23:56;8.38;;;4.15;;
39344;SDS011;25061;51.954;6.996;2023-05-10T16:26:23;11.48;;;3.90;;
39344;SDS011;25061;51.954;6.996;2023-05-10T16:28:49;10.07;;;4.57;;
39344;SDS011;25061;51.954;6.996;2023-05-10T16:31:15;11.68;;;5.22;;
39344;SDS011;25061;51.954;6.996;2023-05-10T16:33:42;11.20;;;5.75;;
39344;SDS011;25061;51.954;6.996;2023-05-10T16:36:10;10.68;;;5.32;;
39344;SDS011;25061;51.954;6.996;2023-05-10T16:38:36;10.88;;;4.88;;
39344;SDS011;25061;51.954;6.996;2023-05-10T16:41:01;10.20;;;5.45;;
39344;SDS011;25061;51.954;6.996;2023-05-10T16:43:28;11.68;;;6.30;;
39344;SDS011;25061;51.954;6.996;2023-05-10T16:45:56;12.90;;;6.20;;
39344;SDS011;25061;51.954;6.996;2023-05-10T16:48:21;12.85;;;6.72;;
39344;SDS011;25061;51.954;6.996;2023-05-10T16:50:48;13.25;;;7.28;;
39344;SDS011;25061;51.954;6.996;2023-05-10T16:53:16;15.63;;;7.10;;
39344;SDS011;25061;51.954;6.996;2023-05-10T16:55:44;13.88;;;6.93;;
39344;SDS011;25061;51.954;6.996;2023-05-10T16:58:09;14.02;;;7.47;;
39344;SDS011;25061;51.954;6.996;2023-05-10T17:00:35;13.05;;;6.97;;
39344;SDS011;25061;51.954;6.996;2023-05-10T17:03:01;14.32;;;7.32;;
39344;SDS011;25061;51.954;6.996;2023-05-10T17:05:27;15.75;;;7.40;;
39344;SDS011;25061;51.954;6.996;2023-05-10T17:07:53;12.35;;;6.75;;
39344;SDS011;25061;51.954;6.996;2023-05-10T17:10:19;14.43;;;7.72;;
39344;SDS011;25061;51.954;6.996;2023-05-10T17:12:45;15.52;;;7.85;;
39344;SDS011;25061;51.954;6.996;2023-05-10T17:15:11;13.75;;;7.90;;
39344;SDS011;25061;51.954;6.996;2023-05-10T17:17:37;15.25;;;8.80;;
39344;SDS011;25061;51.954;6.996;2023-05-10T17:20:02;16.48;;;8.90;;
39344;SDS011;25061;51.954;6.996;2023-05-10T17:22:29;17.27;;;9.40;;
39344;SDS011;25061;51.954;6.996;2023-05-10T17:24:54;14.05;;;8.45;;
39344;SDS011;25061;51.954;6.996;2023-05-10T17:27:20;17.83;;;8.98;;
39344;SDS011;25061;51.954;6.996;2023-05-10T17:29:45;17.50;;;8.77;;
39344;SDS011;25061;51.954;6.996;2023-05-10T17:32:11;16.17;;;9.25;;
39344;SDS011;25061;51.954;6.996;2023-05-10T17:34:38;15.35;;;8.57;;
39344;SDS011;25061;51.954;6.996;2023-05-10T17:37:04;15.13;;;8.75;;
39344;SDS011;25061;51.954;6.996;2023-05-10T17:39:29;15.43;;;8.95;;
39344;SDS011;25061;51.954;6.996;2023-05-10T17:41:55;17.52;;;8.65;;
39344;SDS011;25061;51.954;6.996;2023-05-10T17:44:21;16.08;;;8.60;;
39344;SDS011;25061;51.954;6.996;2023-05-10T17:46:46;15.98;;;9.02;;
39344;SDS011;25061;51.954;6.996;2023-05-10T17:49:13;14.70;;;8.00;;
39344;SDS011;25061;51.954;6.996;2023-05-10T17:51:39;16.58;;;9.20;;
39344;SDS011;25061;51.954;6.996;2023-05-10T17:54:07;15.50;;;8.35;;
39344;SDS011;25061;51.954;6.996;2023-05-10T17:56:33;16.08;;;8.85;;
39344;SDS011;25061;51.954;6.996;2023-05-10T17:58:59;14.35;;;8.10;;
39344;SDS011;25061;51.954;6.996;2023-05-10T18:01:25;16.17;;;8.18;;
39344;SDS011;25061;51.954;6.996;2023-05-10T18:03:50;15.68;;;8.43;;
39344;SDS011;25061;51.954;6.996;2023-05-10T18:06:16;17.13;;;9.45;;
39344;SDS011;25061;51.954;6.996;2023-05-10T18:08:42;16.02;;;8.98;;
39344;SDS011;25061;51.954;6.996;2023-05-10T18:11:08;13.18;;;8.07;;
39344;SDS011;25061;51.954;6.996;2023-05-10T18:13:35;16.05;;;8.38;;
39344;SDS011;25061;51.954;6.996;2023-05-10T18:16:02;15.82;;;8.82;;
39344;SDS011;25061;51.954;6.996;2023-05-10T18:18:30;16.08;;;8.57;;
39344;SDS011;25061;51.954;6.996;2023-05-10T18:20:56;15.40;;;8.88;;
39344;SDS011;25061;51.954;6.996;2023-05-10T18:23:25;20.63;;;9.35;;
39344;SDS011;25061;51.954;6.996;2023-05-10T18:25:51;17.80;;;9.57;;
39344;SDS011;25061;51.954;6.996;2023-05-10T18:28:17;14.55;;;8.32;;
39344;SDS011;25061;51.954;6.996;2023-05-10T18:30:43;15.63;;;9.05;;
39344;SDS011;25061;51.954;6.996;2023-05-10T18:33:09;14.13;;;8.55;;
39344;SDS011;25061;51.954;6.996;2023-05-10T18:35:38;14.25;;;8.65;;
39344;SDS011;25061;51.954;6.996;2023-05-10T18:38:05;14.45;;;9.05;;
39344;SDS011;25061;51.954;6.996;2023-05-10T18:40:31;15.63;;;8.93;;
39344;SDS011;25061;51.954;6.996;2023-05-10T18:42:57;16.88;;;9.02;;
39344;SDS011;25061;51.954;6.996;2023-05-10T18:45:23;17.17;;;9.02;;
39344;SDS011;25061;51.954;6.996;2023-05-10T18:47:48;15.88;;;9.15;;
39344;SDS011;25061;51.954;6.996;2023-05-10T18:50:14;12.68;;;7.95;;
39344;SDS011;25061;51.954;6.996;2023-05-10T18:52:41;14.23;;;8.13;;
39344;SDS011;25061;51.954;6.996;2023-05-10T18:55:07;13.13;;;7.85;;
39344;SDS011;25061;51.954;6.996;2023-05-10T18:57:33;11.98;;;7.47;;
39344;SDS011;25061;51.954;6.996;2023-05-10T19:00:09;22.35;;;9.20;;
39344;SDS011;25061;51.954;6.996;2023-05-10T19:02:36;16.15;;;7.72;;
39344;SDS011;25061;51.954;6.996;2023-05-10T19:05:04;12.23;;;7.72;;
39344;SDS011;25061;51.954;6.996;2023-05-10T19:07:31;13.95;;;8.13;;
39344;SDS011;25061;51.954;6.996;2023-05-10T19:09:57;13.40;;;8.00;;
39344;SDS011;25061;51.954;6.996;2023-05-10T19:12:22;13.02;;;7.43;;
39344;SDS011;25061;51.954;6.996;2023-05-10T19:14:54;11.70;;;7.05;;